sensor_id;sensor_type;location;lat;lon;timestamp;P1;durP1;ratioP1;P2;durP2;ratioP2
25824;SDS011;13658;44.534;18.694;2022-09-09T00:00:22;18.67;;;11.05;;
25824;SDS011;13658;44.534;18.694;2022-09-09T00:08:21;16.33;;;10.77;;
25824;SDS011;13658;44.534;18.694;2022-09-09T00:10:59;19.85;;;11.55;;
25824;SDS011;13658;44.534;18.694;2022-09-09T00:13:37;24.65;;;11.23;;
25824;SDS011;13658;44.534;18.694;2022-09-09T00:16:12;19.10;;;11.40;;
25824;SDS011;13658;44.534;18.694;2022-09-09T00:21:38;17.85;;;10.27;;
25824;SDS011;13658;44.534;18.694;2022-09-09T00:24:23;17.67;;;10.88;;
25824;SDS011;13658;44.534;18.694;2022-09-09T00:26:55;18.17;;;11.07;;
25824;SDS011;13658;44.534;18.694;2022-09-09T00:29:41;16.05;;;10.18;;
25824;SDS011;13658;44.534;18.694;2022-09-09T00:32:19;22.65;;;11.55;;
25824;SDS011;13658;44.534;18.694;2022-09-09T00:37:41;19.63;;;11.23;;
25824;SDS011;13658;44.534;18.694;2022-09-09T00:57:29;21.98;;;13.38;;
25824;SDS011;13658;44.534;18.694;2022-09-09T00:59:59;21.13;;;12.90;;
25824;SDS011;13658;44.534;18.694;2022-09-09T01:02:39;23.15;;;12.60;;
25824;SDS011;13658;44.534;18.694;2022-09-09T01:05:20;25.48;;;13.05;;
25824;SDS011;13658;44.534;18.694;2022-09-09T01:08:00;19.70;;;12.77;;
25824;SDS011;13658;44.534;18.694;2022-09-09T01:13:19;17.83;;;12.30;;
25824;SDS011;13658;44.534;18.694;2022-09-09T01:16:00;20.42;;;11.85;;
25824;SDS011;13658;44.534;18.694;2022-09-09T01:18:35;16.35;;;12.05;;
25824;SDS011;13658;44.534;18.694;2022-09-09T01:26:43;23.20;;;11.95;;
25824;SDS011;13658;44.534;18.694;2022-09-09T01:29:22;21.90;;;12.40;;
25824;SDS011;13658;44.534;18.694;2022-09-09T01:31:53;19.52;;;12.65;;
25824;SDS011;13658;44.534;18.694;2022-09-09T01:34:19;20.30;;;12.80;;
25824;SDS011;13658;44.534;18.694;2022-09-09T01:39:27;22.80;;;12.77;;
25824;SDS011;13658;44.534;18.694;2022-09-09T01:42:00;22.27;;;12.85;;
25824;SDS011;13658;44.534;18.694;2022-09-09T01:44:27;25.83;;;13.80;;
25824;SDS011;13658;44.534;18.694;2022-09-09T01:46:55;22.58;;;13.75;;
25824;SDS011;13658;44.534;18.694;2022-09-09T01:49:21;26.67;;;14.25;;
25824;SDS011;13658;44.534;18.694;2022-09-09T01:51:49;22.50;;;13.73;;
25824;SDS011;13658;44.534;18.694;2022-09-09T01:54:23;21.05;;;14.20;;
25824;SDS011;13658;44.534;18.694;2022-09-09T01:59:48;26.10;;;15.90;;
25824;SDS011;13658;44.534;18.694;2022-09-09T02:07:57;31.95;;;17.05;;
25824;SDS011;13658;44.534;18.694;2022-09-09T02:11:29;31.92;;;18.70;;
25824;SDS011;13658;44.534;18.694;2022-09-09T02:14:16;30.95;;;18.95;;
25824;SDS011;13658;44.534;18.694;2022-09-09T02:16:50;31.40;;;20.00;;
25824;SDS011;13658;44.534;18.694;2022-09-09T02:20:05;32.78;;;18.85;;
25824;SDS011;13658;44.534;18.694;2022-09-09T02:22:59;35.50;;;22.23;;
25824;SDS011;13658;44.534;18.694;2022-09-09T02:25:28;38.72;;;24.10;;
25824;SDS011;13658;44.534;18.694;2022-09-09T02:28:01;33.22;;;19.60;;
25824;SDS011;13658;44.534;18.694;2022-09-09T02:30:32;35.85;;;20.10;;
25824;SDS011;13658;44.534;18.694;2022-09-09T02:33:00;47.08;;;21.58;;
25824;SDS011;13658;44.534;18.694;2022-09-09T02:35:41;37.28;;;20.88;;
25824;SDS011;13658;44.534;18.694;2022-09-09T02:38:10;36.13;;;20.85;;
25824;SDS011;13658;44.534;18.694;2022-09-09T02:40:44;36.80;;;20.98;;
25824;SDS011;13658;44.534;18.694;2022-09-09T02:43:10;40.85;;;21.67;;
25824;SDS011;13658;44.534;18.694;2022-09-09T02:45:41;45.60;;;24.35;;
25824;SDS011;13658;44.534;18.694;2022-09-09T02:48:14;41.80;;;24.95;;
25824;SDS011;13658;44.534;18.694;2022-09-09T02:50:54;42.75;;;25.02;;
25824;SDS011;13658;44.534;18.694;2022-09-09T02:54:13;41.30;;;23.52;;
25824;SDS011;13658;44.534;18.694;2022-09-09T02:56:27;43.38;;;24.08;;
25824;SDS011;13658;44.534;18.694;2022-09-09T02:59:02;43.60;;;24.80;;
25824;SDS011;13658;44.534;18.694;2022-09-09T03:01:30;48.13;;;25.15;;
25824;SDS011;13658;44.534;18.694;2022-09-09T03:03:58;46.42;;;25.77;;
25824;SDS011;13658;44.534;18.694;2022-09-09T03:06:24;43.40;;;25.75;;
25824;SDS011;13658;44.534;18.694;2022-09-09T03:08:58;49.33;;;26.65;;
25824;SDS011;13658;44.534;18.694;2022-09-09T03:11:29;46.22;;;25.67;;
25824;SDS011;13658;44.534;18.694;2022-09-09T03:13:54;47.58;;;26.77;;
25824;SDS011;13658;44.534;18.694;2022-09-09T03:16:25;44.22;;;26.23;;
25824;SDS011;13658;44.534;18.694;2022-09-09T03:18:53;46.97;;;27.67;;
25824;SDS011;13658;44.534;18.694;2022-09-09T03:21:19;45.13;;;26.80;;
25824;SDS011;13658;44.534;18.694;2022-09-09T03:23:45;49.92;;;28.98;;
25824;SDS011;13658;44.534;18.694;2022-09-09T03:26:11;44.28;;;26.80;;
25824;SDS011;13658;44.534;18.694;2022-09-09T03:28:43;46.80;;;27.60;;
25824;SDS011;13658;44.534;18.694;2022-09-09T03:31:12;49.20;;;27.70;;
25824;SDS011;13658;44.534;18.694;2022-09-09T03:33:40;51.67;;;27.80;;
25824;SDS011;13658;44.534;18.694;2022-09-09T03:36:11;53.15;;;27.45;;
25824;SDS011;13658;44.534;18.694;2022-09-09T03:38:38;44.67;;;26.10;;
25824;SDS011;13658;44.534;18.694;2022-09-09T03:41:05;48.03;;;27.40;;
25824;SDS011;13658;44.534;18.694;2022-09-09T03:43:31;53.63;;;27.25;;
25824;SDS011;13658;44.534;18.694;2022-09-09T03:45:57;45.20;;;25.90;;
25824;SDS011;13658;44.534;18.694;2022-09-09T03:48:25;55.20;;;26.98;;
25824;SDS011;13658;44.534;18.694;2022-09-09T03:50:54;51.88;;;27.50;;
25824;SDS011;13658;44.534;18.694;2022-09-09T03:53:26;45.78;;;26.25;;
25824;SDS011;13658;44.534;18.694;2022-09-09T03:55:54;49.47;;;28.42;;
25824;SDS011;13658;44.534;18.694;2022-09-09T03:58:24;53.40;;;28.27;;
25824;SDS011;13658;44.534;18.694;2022-09-09T04:00:55;59.00;;;31.08;;
25824;SDS011;13658;44.534;18.694;2022-09-09T04:03:26;54.00;;;30.05;;
25824;SDS011;13658;44.534;18.694;2022-09-09T04:05:53;63.38;;;31.45;;
25824;SDS011;13658;44.534;18.694;2022-09-09T04:08:21;54.58;;;29.73;;
25824;SDS011;13658;44.534;18.694;2022-09-09T04:10:50;58.42;;;29.88;;
25824;SDS011;13658;44.534;18.694;2022-09-09T04:13:17;60.80;;;31.75;;
25824;SDS011;13658;44.534;18.694;2022-09-09T04:15:52;60.67;;;31.80;;
25824;SDS011;13658;44.534;18.694;2022-09-09T04:18:20;67.15;;;32.97;;
25824;SDS011;13658;44.534;18.694;2022-09-09T04:20:47;69.30;;;33.95;;
25824;SDS011;13658;44.534;18.694;2022-09-09T04:23:17;68.07;;;34.45;;
25824;SDS011;13658;44.534;18.694;2022-09-09T04:25:50;60.60;;;33.28;;
25824;SDS011;13658;44.534;18.694;2022-09-09T04:28:18;62.95;;;32.25;;
25824;SDS011;13658;44.534;18.694;2022-09-09T04:30:47;61.17;;;32.45;;
25824;SDS011;13658;44.534;18.694;2022-09-09T04:33:13;61.13;;;32.53;;
25824;SDS011;13658;44.534;18.694;2022-09-09T04:35:47;61.70;;;31.38;;
25824;SDS011;13658;44.534;18.694;2022-09-09T04:38:16;66.60;;;33.13;;
25824;SDS011;13658;44.534;18.694;2022-09-09T04:40:43;64.18;;;33.10;;
25824;SDS011;13658;44.534;18.694;2022-09-09T04:43:13;62.28;;;32.13;;
25824;SDS011;13658;44.534;18.694;2022-09-09T04:45:43;62.33;;;30.05;;
25824;SDS011;13658;44.534;18.694;2022-09-09T04:48:12;55.28;;;29.85;;
25824;SDS011;13658;44.534;18.694;2022-09-09T04:50:39;52.15;;;29.25;;
25824;SDS011;13658;44.534;18.694;2022-09-09T04:53:07;59.83;;;29.77;;
25824;SDS011;13658;44.534;18.694;2022-09-09T04:55:35;54.25;;;28.23;;
25824;SDS011;13658;44.534;18.694;2022-09-09T04:58:05;58.72;;;30.92;;
25824;SDS011;13658;44.534;18.694;2022-09-09T05:00:33;56.78;;;29.35;;
25824;SDS011;13658;44.534;18.694;2022-09-09T05:03:04;50.90;;;28.13;;
25824;SDS011;13658;44.534;18.694;2022-09-09T05:05:31;56.83;;;28.73;;
25824;SDS011;13658;44.534;18.694;2022-09-09T05:08:06;48.33;;;28.55;;
25824;SDS011;13658;44.534;18.694;2022-09-09T05:10:34;60.20;;;31.70;;
25824;SDS011;13658;44.534;18.694;2022-09-09T05:13:03;52.58;;;29.70;;
25824;SDS011;13658;44.534;18.694;2022-09-09T05:15:30;60.47;;;29.35;;
25824;SDS011;13658;44.534;18.694;2022-09-09T05:18:00;47.15;;;27.13;;
25824;SDS011;13658;44.534;18.694;2022-09-09T05:20:29;47.78;;;28.73;;
25824;SDS011;13658;44.534;18.694;2022-09-09T05:22:55;51.25;;;30.13;;
25824;SDS011;13658;44.534;18.694;2022-09-09T05:25:25;45.75;;;27.55;;
25824;SDS011;13658;44.534;18.694;2022-09-09T05:27:53;49.28;;;27.50;;
25824;SDS011;13658;44.534;18.694;2022-09-09T05:30:19;49.97;;;27.42;;
25824;SDS011;13658;44.534;18.694;2022-09-09T05:32:47;48.40;;;27.70;;
25824;SDS011;13658;44.534;18.694;2022-09-09T05:35:14;46.45;;;27.17;;
25824;SDS011;13658;44.534;18.694;2022-09-09T05:37:41;48.47;;;28.30;;
25824;SDS011;13658;44.534;18.694;2022-09-09T05:40:07;48.70;;;27.40;;
25824;SDS011;13658;44.534;18.694;2022-09-09T05:42:34;45.63;;;27.95;;
25824;SDS011;13658;44.534;18.694;2022-09-09T05:45:00;48.08;;;28.25;;
25824;SDS011;13658;44.534;18.694;2022-09-09T05:47:26;49.88;;;28.13;;
25824;SDS011;13658;44.534;18.694;2022-09-09T05:49:54;48.90;;;28.70;;
25824;SDS011;13658;44.534;18.694;2022-09-09T05:52:20;48.53;;;28.45;;
25824;SDS011;13658;44.534;18.694;2022-09-09T05:54:47;47.00;;;27.17;;
25824;SDS011;13658;44.534;18.694;2022-09-09T05:57:13;47.88;;;27.45;;
25824;SDS011;13658;44.534;18.694;2022-09-09T05:59:40;42.70;;;25.73;;
25824;SDS011;13658;44.534;18.694;2022-09-09T06:02:07;37.65;;;24.55;;
25824;SDS011;13658;44.534;18.694;2022-09-09T06:04:35;38.65;;;26.02;;
25824;SDS011;13658;44.534;18.694;2022-09-09T06:07:02;43.35;;;25.85;;
25824;SDS011;13658;44.534;18.694;2022-09-09T06:09:29;37.58;;;23.30;;
25824;SDS011;13658;44.534;18.694;2022-09-09T06:11:55;35.75;;;24.13;;
25824;SDS011;13658;44.534;18.694;2022-09-09T06:14:23;35.65;;;22.10;;
25824;SDS011;13658;44.534;18.694;2022-09-09T06:16:51;39.75;;;25.40;;
25824;SDS011;13658;44.534;18.694;2022-09-09T06:19:20;32.17;;;20.75;;
25824;SDS011;13658;44.534;18.694;2022-09-09T06:21:47;31.85;;;20.90;;
25824;SDS011;13658;44.534;18.694;2022-09-09T06:24:15;35.53;;;22.95;;
25824;SDS011;13658;44.534;18.694;2022-09-09T06:26:43;32.40;;;22.15;;
25824;SDS011;13658;44.534;18.694;2022-09-09T06:29:18;35.15;;;21.88;;
25824;SDS011;13658;44.534;18.694;2022-09-09T06:31:44;45.90;;;27.75;;
25824;SDS011;13658;44.534;18.694;2022-09-09T06:34:17;37.92;;;26.25;;
25824;SDS011;13658;44.534;18.694;2022-09-09T06:36:49;33.42;;;24.77;;
25824;SDS011;13658;44.534;18.694;2022-09-09T06:39:15;33.35;;;23.05;;
25824;SDS011;13658;44.534;18.694;2022-09-09T06:41:41;35.33;;;22.70;;
25824;SDS011;13658;44.534;18.694;2022-09-09T06:44:18;38.92;;;21.60;;
25824;SDS011;13658;44.534;18.694;2022-09-09T06:46:45;29.90;;;21.08;;
25824;SDS011;13658;44.534;18.694;2022-09-09T06:49:14;33.00;;;21.27;;
25824;SDS011;13658;44.534;18.694;2022-09-09T06:51:40;35.83;;;21.90;;
25824;SDS011;13658;44.534;18.694;2022-09-09T06:54:10;31.60;;;21.83;;
25824;SDS011;13658;44.534;18.694;2022-09-09T06:56:41;28.25;;;19.70;;
25824;SDS011;13658;44.534;18.694;2022-09-09T06:59:14;32.55;;;21.08;;
25824;SDS011;13658;44.534;18.694;2022-09-09T07:01:41;28.55;;;20.23;;
25824;SDS011;13658;44.534;18.694;2022-09-09T07:04:13;30.13;;;20.35;;
25824;SDS011;13658;44.534;18.694;2022-09-09T07:06:42;26.92;;;16.60;;
25824;SDS011;13658;44.534;18.694;2022-09-09T07:09:13;23.33;;;16.60;;
25824;SDS011;13658;44.534;18.694;2022-09-09T07:11:45;21.20;;;15.45;;
25824;SDS011;13658;44.534;18.694;2022-09-09T07:14:13;21.60;;;16.27;;
25824;SDS011;13658;44.534;18.694;2022-09-09T07:16:41;19.38;;;13.85;;
25824;SDS011;13658;44.534;18.694;2022-09-09T07:19:09;18.15;;;13.82;;
25824;SDS011;13658;44.534;18.694;2022-09-09T07:21:36;21.23;;;15.05;;
25824;SDS011;13658;44.534;18.694;2022-09-09T07:24:02;18.27;;;13.45;;
25824;SDS011;13658;44.534;18.694;2022-09-09T07:26:30;20.25;;;15.07;;
25824;SDS011;13658;44.534;18.694;2022-09-09T07:28:58;22.90;;;13.73;;
25824;SDS011;13658;44.534;18.694;2022-09-09T07:31:25;23.50;;;14.90;;
25824;SDS011;13658;44.534;18.694;2022-09-09T07:33:54;20.50;;;13.68;;
25824;SDS011;13658;44.534;18.694;2022-09-09T07:36:21;17.40;;;14.07;;
25824;SDS011;13658;44.534;18.694;2022-09-09T07:38:52;18.30;;;12.65;;
25824;SDS011;13658;44.534;18.694;2022-09-09T07:41:21;21.77;;;15.82;;
25824;SDS011;13658;44.534;18.694;2022-09-09T07:43:49;19.75;;;13.00;;
25824;SDS011;13658;44.534;18.694;2022-09-09T07:46:20;16.83;;;11.23;;
25824;SDS011;13658;44.534;18.694;2022-09-09T07:48:53;19.35;;;13.25;;
25824;SDS011;13658;44.534;18.694;2022-09-09T07:51:26;15.82;;;12.00;;
25824;SDS011;13658;44.534;18.694;2022-09-09T07:53:55;16.30;;;11.43;;
25824;SDS011;13658;44.534;18.694;2022-09-09T07:56:29;16.33;;;12.27;;
25824;SDS011;13658;44.534;18.694;2022-09-09T07:58:57;18.65;;;13.98;;
25824;SDS011;13658;44.534;18.694;2022-09-09T08:03:55;20.98;;;16.02;;
25824;SDS011;13658;44.534;18.694;2022-09-09T08:06:32;19.45;;;11.70;;
25824;SDS011;13658;44.534;18.694;2022-09-09T08:09:06;20.40;;;14.50;;
25824;SDS011;13658;44.534;18.694;2022-09-09T08:11:33;20.90;;;12.32;;
25824;SDS011;13658;44.534;18.694;2022-09-09T08:14:02;17.80;;;10.82;;
25824;SDS011;13658;44.534;18.694;2022-09-09T08:16:30;20.90;;;13.68;;
25824;SDS011;13658;44.534;18.694;2022-09-09T08:18:59;15.63;;;11.05;;
25824;SDS011;13658;44.534;18.694;2022-09-09T08:21:27;27.55;;;18.40;;
25824;SDS011;13658;44.534;18.694;2022-09-09T08:23:57;33.80;;;21.88;;
25824;SDS011;13658;44.534;18.694;2022-09-09T08:26:26;15.70;;;11.00;;
25824;SDS011;13658;44.534;18.694;2022-09-09T08:28:56;21.17;;;14.35;;
25824;SDS011;13658;44.534;18.694;2022-09-09T08:31:25;19.52;;;12.70;;
25824;SDS011;13658;44.534;18.694;2022-09-09T08:33:56;14.43;;;11.48;;
25824;SDS011;13658;44.534;18.694;2022-09-09T08:36:31;21.58;;;14.52;;
25824;SDS011;13658;44.534;18.694;2022-09-09T08:38:59;20.02;;;13.43;;
25824;SDS011;13658;44.534;18.694;2022-09-09T08:44:04;13.30;;;9.20;;
25824;SDS011;13658;44.534;18.694;2022-09-09T08:46:36;15.75;;;10.57;;
25824;SDS011;13658;44.534;18.694;2022-09-09T08:49:18;35.58;;;21.20;;
25824;SDS011;13658;44.534;18.694;2022-09-09T08:51:47;12.95;;;10.38;;
25824;SDS011;13658;44.534;18.694;2022-09-09T08:54:15;12.77;;;8.90;;
25824;SDS011;13658;44.534;18.694;2022-09-09T08:56:42;15.27;;;10.70;;
25824;SDS011;13658;44.534;18.694;2022-09-09T08:59:09;16.88;;;11.50;;
25824;SDS011;13658;44.534;18.694;2022-09-09T09:01:47;11.05;;;8.82;;
25824;SDS011;13658;44.534;18.694;2022-09-09T09:04:33;13.73;;;9.27;;
25824;SDS011;13658;44.534;18.694;2022-09-09T09:07:18;12.90;;;8.05;;
25824;SDS011;13658;44.534;18.694;2022-09-09T09:13:39;14.85;;;9.15;;
25824;SDS011;13658;44.534;18.694;2022-09-09T09:18:48;19.70;;;12.15;;
25824;SDS011;13658;44.534;18.694;2022-09-09T09:21:21;38.95;;;27.20;;
25824;SDS011;13658;44.534;18.694;2022-09-09T09:24:23;14.32;;;9.50;;
25824;SDS011;13658;44.534;18.694;2022-09-09T09:26:50;16.73;;;11.65;;
25824;SDS011;13658;44.534;18.694;2022-09-09T09:29:19;22.95;;;13.10;;
25824;SDS011;13658;44.534;18.694;2022-09-09T09:31:51;13.05;;;9.48;;
25824;SDS011;13658;44.534;18.694;2022-09-09T09:34:22;11.25;;;7.75;;
25824;SDS011;13658;44.534;18.694;2022-09-09T09:36:57;14.30;;;9.57;;
25824;SDS011;13658;44.534;18.694;2022-09-09T09:39:30;13.10;;;8.18;;
25824;SDS011;13658;44.534;18.694;2022-09-09T09:42:11;21.77;;;15.32;;
25824;SDS011;13658;44.534;18.694;2022-09-09T09:44:41;22.58;;;19.05;;
25824;SDS011;13658;44.534;18.694;2022-09-09T09:47:15;12.25;;;8.38;;
25824;SDS011;13658;44.534;18.694;2022-09-09T09:49:53;15.85;;;9.18;;
25824;SDS011;13658;44.534;18.694;2022-09-09T09:52:26;12.45;;;8.52;;
25824;SDS011;13658;44.534;18.694;2022-09-09T09:54:54;9.80;;;7.78;;
25824;SDS011;13658;44.534;18.694;2022-09-09T09:57:24;10.52;;;8.07;;
25824;SDS011;13658;44.534;18.694;2022-09-09T10:00:12;19.92;;;9.50;;
25824;SDS011;13658;44.534;18.694;2022-09-09T10:02:41;17.17;;;9.77;;
25824;SDS011;13658;44.534;18.694;2022-09-09T10:05:14;15.00;;;10.23;;
25824;SDS011;13658;44.534;18.694;2022-09-09T10:07:45;10.65;;;7.57;;
25824;SDS011;13658;44.534;18.694;2022-09-09T10:10:13;10.40;;;7.85;;
25824;SDS011;13658;44.534;18.694;2022-09-09T10:12:55;51.40;;;33.15;;
25824;SDS011;13658;44.534;18.694;2022-09-09T10:19:05;9.45;;;7.13;;
25824;SDS011;13658;44.534;18.694;2022-09-09T10:24:36;10.70;;;6.97;;
25824;SDS011;13658;44.534;18.694;2022-09-09T10:29:47;8.20;;;6.20;;
25824;SDS011;13658;44.534;18.694;2022-09-09T10:37:54;17.77;;;12.57;;
25824;SDS011;13658;44.534;18.694;2022-09-09T10:45:41;7.00;;;5.32;;
25824;SDS011;13658;44.534;18.694;2022-09-09T10:56:29;12.52;;;6.82;;
25824;SDS011;13658;44.534;18.694;2022-09-09T10:58:58;10.10;;;6.50;;
25824;SDS011;13658;44.534;18.694;2022-09-09T11:01:34;9.52;;;6.07;;
25824;SDS011;13658;44.534;18.694;2022-09-09T11:04:06;10.43;;;6.20;;
25824;SDS011;13658;44.534;18.694;2022-09-09T11:06:48;13.13;;;7.63;;
25824;SDS011;13658;44.534;18.694;2022-09-09T11:09:20;8.43;;;5.13;;
25824;SDS011;13658;44.534;18.694;2022-09-09T11:11:52;9.43;;;6.75;;
25824;SDS011;13658;44.534;18.694;2022-09-09T11:17:01;10.35;;;5.55;;
25824;SDS011;13658;44.534;18.694;2022-09-09T11:19:46;28.83;;;16.15;;
25824;SDS011;13658;44.534;18.694;2022-09-09T11:27:53;7.68;;;5.03;;
25824;SDS011;13658;44.534;18.694;2022-09-09T11:39:24;7.28;;;4.60;;
25824;SDS011;13658;44.534;18.694;2022-09-09T11:44:38;5.78;;;4.85;;
25824;SDS011;13658;44.534;18.694;2022-09-09T11:52:40;18.13;;;9.77;;
25824;SDS011;13658;44.534;18.694;2022-09-09T11:58:02;7.57;;;4.90;;
25824;SDS011;13658;44.534;18.694;2022-09-09T12:03:00;12.38;;;7.03;;
25824;SDS011;13658;44.534;18.694;2022-09-09T12:05:37;10.00;;;5.22;;
25824;SDS011;13658;44.534;18.694;2022-09-09T12:08:07;7.97;;;5.15;;
25824;SDS011;13658;44.534;18.694;2022-09-09T12:10:37;9.68;;;5.15;;
25824;SDS011;13658;44.534;18.694;2022-09-09T12:13:18;9.05;;;6.10;;
25824;SDS011;13658;44.534;18.694;2022-09-09T12:15:49;6.35;;;4.80;;
25824;SDS011;13658;44.534;18.694;2022-09-09T12:18:22;6.35;;;4.70;;
25824;SDS011;13658;44.534;18.694;2022-09-09T12:21:11;9.55;;;8.30;;
25824;SDS011;13658;44.534;18.694;2022-09-09T12:26:32;8.82;;;4.75;;
25824;SDS011;13658;44.534;18.694;2022-09-09T12:29:23;9.27;;;5.70;;
25824;SDS011;13658;44.534;18.694;2022-09-09T12:32:12;6.50;;;4.50;;
25824;SDS011;13658;44.534;18.694;2022-09-09T12:34:55;9.35;;;4.80;;
25824;SDS011;13658;44.534;18.694;2022-09-09T12:37:37;5.00;;;3.83;;
25824;SDS011;13658;44.534;18.694;2022-09-09T12:42:47;7.22;;;5.65;;
25824;SDS011;13658;44.534;18.694;2022-09-09T12:47:48;8.40;;;5.78;;
25824;SDS011;13658;44.534;18.694;2022-09-09T12:50:24;5.47;;;4.38;;
25824;SDS011;13658;44.534;18.694;2022-09-09T12:52:54;43.50;;;31.75;;
25824;SDS011;13658;44.534;18.694;2022-09-09T12:55:30;6.78;;;5.25;;
25824;SDS011;13658;44.534;18.694;2022-09-09T12:57:58;10.95;;;7.60;;
25824;SDS011;13658;44.534;18.694;2022-09-09T13:00:26;6.85;;;4.82;;
25824;SDS011;13658;44.534;18.694;2022-09-09T13:03:00;6.53;;;4.82;;
25824;SDS011;13658;44.534;18.694;2022-09-09T13:05:41;4.90;;;4.07;;
25824;SDS011;13658;44.534;18.694;2022-09-09T13:08:11;10.75;;;4.50;;
25824;SDS011;13658;44.534;18.694;2022-09-09T13:13:30;7.43;;;5.80;;
25824;SDS011;13658;44.534;18.694;2022-09-09T13:16:02;6.97;;;5.05;;
25824;SDS011;13658;44.534;18.694;2022-09-09T13:18:34;6.93;;;5.07;;
25824;SDS011;13658;44.534;18.694;2022-09-09T13:21:01;6.32;;;4.40;;
25824;SDS011;13658;44.534;18.694;2022-09-09T13:23:29;6.18;;;4.38;;
25824;SDS011;13658;44.534;18.694;2022-09-09T13:26:00;5.88;;;4.07;;
25824;SDS011;13658;44.534;18.694;2022-09-09T13:28:30;7.15;;;5.57;;
25824;SDS011;13658;44.534;18.694;2022-09-09T13:33:33;8.98;;;6.28;;
25824;SDS011;13658;44.534;18.694;2022-09-09T13:36:09;6.45;;;4.78;;
25824;SDS011;13658;44.534;18.694;2022-09-09T13:38:38;5.30;;;4.35;;
25824;SDS011;13658;44.534;18.694;2022-09-09T13:41:51;8.05;;;4.55;;
25824;SDS011;13658;44.534;18.694;2022-09-09T13:46:42;10.50;;;8.27;;
25824;SDS011;13658;44.534;18.694;2022-09-09T13:51:37;6.30;;;4.15;;
25824;SDS011;13658;44.534;18.694;2022-09-09T13:54:05;8.57;;;5.90;;
25824;SDS011;13658;44.534;18.694;2022-09-09T13:56:35;5.40;;;4.05;;
25824;SDS011;13658;44.534;18.694;2022-09-09T13:59:02;10.48;;;7.78;;
25824;SDS011;13658;44.534;18.694;2022-09-09T14:01:29;7.43;;;5.82;;
25824;SDS011;13658;44.534;18.694;2022-09-09T14:03:56;8.35;;;5.68;;
25824;SDS011;13658;44.534;18.694;2022-09-09T14:06:22;7.22;;;3.78;;
25824;SDS011;13658;44.534;18.694;2022-09-09T14:08:49;7.28;;;3.25;;
25824;SDS011;13658;44.534;18.694;2022-09-09T14:11:16;6.70;;;3.83;;
25824;SDS011;13658;44.534;18.694;2022-09-09T14:13:42;5.78;;;3.47;;
25824;SDS011;13658;44.534;18.694;2022-09-09T14:16:08;13.20;;;9.52;;
25824;SDS011;13658;44.534;18.694;2022-09-09T14:18:35;11.48;;;7.50;;
25824;SDS011;13658;44.534;18.694;2022-09-09T14:21:03;9.60;;;6.07;;
25824;SDS011;13658;44.534;18.694;2022-09-09T14:23:29;5.35;;;4.60;;
25824;SDS011;13658;44.534;18.694;2022-09-09T14:25:55;6.40;;;4.32;;
25824;SDS011;13658;44.534;18.694;2022-09-09T14:28:21;5.65;;;3.55;;
25824;SDS011;13658;44.534;18.694;2022-09-09T14:30:47;8.30;;;4.95;;
25824;SDS011;13658;44.534;18.694;2022-09-09T14:33:14;5.88;;;4.45;;
25824;SDS011;13658;44.534;18.694;2022-09-09T14:35:41;10.88;;;7.88;;
25824;SDS011;13658;44.534;18.694;2022-09-09T14:38:08;8.55;;;4.30;;
25824;SDS011;13658;44.534;18.694;2022-09-09T14:40:35;10.10;;;5.78;;
25824;SDS011;13658;44.534;18.694;2022-09-09T14:43:02;43.88;;;33.25;;
25824;SDS011;13658;44.534;18.694;2022-09-09T14:45:28;55.30;;;40.50;;
25824;SDS011;13658;44.534;18.694;2022-09-09T14:47:54;49.67;;;33.63;;
25824;SDS011;13658;44.534;18.694;2022-09-09T14:50:21;6.63;;;4.47;;
25824;SDS011;13658;44.534;18.694;2022-09-09T14:52:48;7.03;;;3.75;;
25824;SDS011;13658;44.534;18.694;2022-09-09T14:55:15;5.32;;;3.92;;
25824;SDS011;13658;44.534;18.694;2022-09-09T14:57:41;8.60;;;4.32;;
25824;SDS011;13658;44.534;18.694;2022-09-09T15:00:08;9.20;;;5.50;;
25824;SDS011;13658;44.534;18.694;2022-09-09T15:02:36;9.88;;;5.07;;
25824;SDS011;13658;44.534;18.694;2022-09-09T15:05:03;11.15;;;5.53;;
25824;SDS011;13658;44.534;18.694;2022-09-09T15:07:29;25.30;;;15.95;;
25824;SDS011;13658;44.534;18.694;2022-09-09T15:09:57;6.50;;;4.60;;
25824;SDS011;13658;44.534;18.694;2022-09-09T15:12:23;7.97;;;4.93;;
25824;SDS011;13658;44.534;18.694;2022-09-09T15:14:49;11.55;;;6.20;;
25824;SDS011;13658;44.534;18.694;2022-09-09T15:17:15;8.18;;;5.13;;
25824;SDS011;13658;44.534;18.694;2022-09-09T15:19:41;10.32;;;7.75;;
25824;SDS011;13658;44.534;18.694;2022-09-09T15:22:08;7.40;;;4.30;;
25824;SDS011;13658;44.534;18.694;2022-09-09T15:24:34;6.00;;;4.38;;
25824;SDS011;13658;44.534;18.694;2022-09-09T15:27:00;10.57;;;5.25;;
25824;SDS011;13658;44.534;18.694;2022-09-09T15:29:27;8.23;;;6.13;;
25824;SDS011;13658;44.534;18.694;2022-09-09T15:31:53;9.48;;;6.15;;
25824;SDS011;13658;44.534;18.694;2022-09-09T15:34:23;11.35;;;6.57;;
25824;SDS011;13658;44.534;18.694;2022-09-09T15:36:49;11.02;;;5.35;;
25824;SDS011;13658;44.534;18.694;2022-09-09T15:39:16;7.53;;;4.75;;
25824;SDS011;13658;44.534;18.694;2022-09-09T15:41:46;8.85;;;4.90;;
25824;SDS011;13658;44.534;18.694;2022-09-09T15:44:13;10.13;;;6.10;;
25824;SDS011;13658;44.534;18.694;2022-09-09T15:46:41;13.50;;;6.82;;
25824;SDS011;13658;44.534;18.694;2022-09-09T15:49:10;9.32;;;7.43;;
25824;SDS011;13658;44.534;18.694;2022-09-09T15:51:42;10.38;;;7.15;;
25824;SDS011;13658;44.534;18.694;2022-09-09T15:54:10;12.50;;;7.57;;
25824;SDS011;13658;44.534;18.694;2022-09-09T15:56:38;14.23;;;8.98;;
25824;SDS011;13658;44.534;18.694;2022-09-09T15:59:04;10.95;;;7.85;;
25824;SDS011;13658;44.534;18.694;2022-09-09T16:01:30;13.68;;;8.48;;
25824;SDS011;13658;44.534;18.694;2022-09-09T16:03:58;12.18;;;8.02;;
25824;SDS011;13658;44.534;18.694;2022-09-09T16:06:25;12.70;;;8.32;;
25824;SDS011;13658;44.534;18.694;2022-09-09T16:08:53;12.40;;;8.82;;
25824;SDS011;13658;44.534;18.694;2022-09-09T16:11:28;15.52;;;9.65;;
25824;SDS011;13658;44.534;18.694;2022-09-09T16:13:58;15.05;;;9.40;;
25824;SDS011;13658;44.534;18.694;2022-09-09T16:16:26;12.35;;;9.27;;
25824;SDS011;13658;44.534;18.694;2022-09-09T16:18:55;15.98;;;9.70;;
25824;SDS011;13658;44.534;18.694;2022-09-09T16:21:25;13.30;;;9.98;;
25824;SDS011;13658;44.534;18.694;2022-09-09T16:23:57;13.65;;;10.27;;
25824;SDS011;13658;44.534;18.694;2022-09-09T16:26:25;12.13;;;9.90;;
25824;SDS011;13658;44.534;18.694;2022-09-09T16:28:55;15.43;;;10.40;;
25824;SDS011;13658;44.534;18.694;2022-09-09T16:31:24;17.15;;;11.00;;
25824;SDS011;13658;44.534;18.694;2022-09-09T16:33:50;16.25;;;11.13;;
25824;SDS011;13658;44.534;18.694;2022-09-09T16:36:18;13.20;;;10.15;;
25824;SDS011;13658;44.534;18.694;2022-09-09T16:38:56;13.77;;;10.45;;
25824;SDS011;13658;44.534;18.694;2022-09-09T16:41:24;19.55;;;15.45;;
25824;SDS011;13658;44.534;18.694;2022-09-09T16:43:54;14.30;;;10.80;;
25824;SDS011;13658;44.534;18.694;2022-09-09T16:46:22;13.52;;;10.35;;
25824;SDS011;13658;44.534;18.694;2022-09-09T16:48:49;15.73;;;9.82;;
25824;SDS011;13658;44.534;18.694;2022-09-09T16:51:20;18.63;;;10.70;;
25824;SDS011;13658;44.534;18.694;2022-09-09T16:53:51;19.92;;;13.82;;